sensor_id;sensor_type;location;lat;lon;timestamp;pressure;altitude;pressure_sealevel;temperature;humidity
75740;BME280;64357;51.344;6.550;2023-04-25T00:01:45;100547.34;;;6.32;86.48
75740;BME280;64357;51.344;6.550;2023-04-25T00:04:13;100542.69;;;6.28;86.91
75740;BME280;64357;51.344;6.550;2023-04-25T00:06:38;100544.09;;;6.33;87.00
75740;BME280;64357;51.344;6.550;2023-04-25T00:09:05;100547.53;;;6.34;86.97
75740;BME280;64357;51.344;6.550;2023-04-25T00:11:33;100558.69;;;6.43;87.16
75740;BME280;64357;51.344;6.550;2023-04-25T00:14:01;100551.66;;;6.40;86.11
75740;BME280;64357;51.344;6.550;2023-04-25T00:16:27;100546.34;;;6.46;86.50
75740;BME280;64357;51.344;6.550;2023-04-25T00:18:54;100556.97;;;6.51;86.32
75740;BME280;64357;51.344;6.550;2023-04-25T00:21:22;100552.84;;;6.51;86.46
75740;BME280;64357;51.344;6.550;2023-04-25T00:23:49;100554.22;;;6.56;86.50
75740;BME280;64357;51.344;6.550;2023-04-25T00:26:15;100557.16;;;6.52;86.43
75740;BME280;64357;51.344;6.550;2023-04-25T00:28:40;100552.31;;;6.47;86.67
75740;BME280;64357;51.344;6.550;2023-04-25T00:31:06;100550.69;;;6.47;86.58
75740;BME280;64357;51.344;6.550;2023-04-25T00:33:34;100559.34;;;6.49;86.03
75740;BME280;64357;51.344;6.550;2023-04-25T00:36:00;100566.66;;;6.46;86.44
75740;BME280;64357;51.344;6.550;2023-04-25T00:38:25;100558.06;;;6.53;86.75
75740;BME280;64357;51.344;6.550;2023-04-25T00:40:50;100564.59;;;6.51;87.11
75740;BME280;64357;51.344;6.550;2023-04-25T00:43:18;100564.19;;;6.55;86.63
75740;BME280;64357;51.344;6.550;2023-04-25T00:45:44;100563.47;;;6.56;86.32
75740;BME280;64357;51.344;6.550;2023-04-25T00:48:13;100568.53;;;6.56;86.44
75740;BME280;64357;51.344;6.550;2023-04-25T00:50:39;100557.31;;;6.54;86.22
75740;BME280;64357;51.344;6.550;2023-04-25T00:53:10;100556.97;;;6.51;86.73
75740;BME280;64357;51.344;6.550;2023-04-25T00:55:35;100556.81;;;6.49;86.96
75740;BME280;64357;51.344;6.550;2023-04-25T00:58:01;100564.09;;;6.46;86.84
75740;BME280;64357;51.344;6.550;2023-04-25T01:00:26;100558.38;;;6.56;87.13
75740;BME280;64357;51.344;6.550;2023-04-25T01:02:52;100553.00;;;6.53;86.38
75740;BME280;64357;51.344;6.550;2023-04-25T01:05:19;100561.66;;;6.55;87.42
75740;BME280;64357;51.344;6.550;2023-04-25T01:07:45;100554.22;;;6.56;87.28
75740;BME280;64357;51.344;6.550;2023-04-25T01:10:10;100545.59;;;6.47;86.60
75740;BME280;64357;51.344;6.550;2023-04-25T01:12:41;100564.03;;;6.53;86.94
75740;BME280;64357;51.344;6.550;2023-04-25T01:15:06;100566.19;;;6.57;87.22
75740;BME280;64357;51.344;6.550;2023-04-25T01:17:35;100577.13;;;6.49;86.56
75740;BME280;64357;51.344;6.550;2023-04-25T01:20:03;100574.06;;;6.45;87.63
75740;BME280;64357;51.344;6.550;2023-04-25T01:22:29;100569.13;;;6.53;87.65
75740;BME280;64357;51.344;6.550;2023-04-25T01:24:55;100573.28;;;6.53;88.09
75740;BME280;64357;51.344;6.550;2023-04-25T01:27:21;100569.50;;;6.49;87.29
75740;BME280;64357;51.344;6.550;2023-04-25T01:29:47;100574.75;;;6.51;87.78
75740;BME280;64357;51.344;6.550;2023-04-25T01:32:13;100578.59;;;6.47;87.59
75740;BME280;64357;51.344;6.550;2023-04-25T01:34:39;100566.97;;;6.49;88.26
75740;BME280;64357;51.344;6.550;2023-04-25T01:37:04;100568.97;;;6.52;87.98
75740;BME280;64357;51.344;6.550;2023-04-25T01:39:30;100574.06;;;6.45;87.88
75740;BME280;64357;51.344;6.550;2023-04-25T01:41:58;100580.91;;;6.53;87.59
75740;BME280;64357;51.344;6.550;2023-04-25T01:44:24;100576.22;;;6.49;87.31
75740;BME280;64357;51.344;6.550;2023-04-25T01:46:50;100580.75;;;6.51;87.77
75740;BME280;64357;51.344;6.550;2023-04-25T01:49:18;100577.03;;;6.63;86.86
75740;BME280;64357;51.344;6.550;2023-04-25T01:51:44;100589.75;;;6.56;86.50
75740;BME280;64357;51.344;6.550;2023-04-25T01:54:12;100588.13;;;6.57;86.18
75740;BME280;64357;51.344;6.550;2023-04-25T01:56:39;100590.84;;;6.58;86.68
75740;BME280;64357;51.344;6.550;2023-04-25T01:59:05;100589.88;;;6.65;86.03
75740;BME280;64357;51.344;6.550;2023-04-25T02:01:33;100592.69;;;6.52;86.76
75740;BME280;64357;51.344;6.550;2023-04-25T02:03:59;100596.13;;;6.53;87.62
75740;BME280;64357;51.344;6.550;2023-04-25T02:06:24;100606.97;;;6.59;87.01
75740;BME280;64357;51.344;6.550;2023-04-25T02:08:52;100602.84;;;6.52;87.27
75740;BME280;64357;51.344;6.550;2023-04-25T02:11:19;100603.75;;;6.53;86.78
75740;BME280;64357;51.344;6.550;2023-04-25T02:13:45;100596.00;;;6.44;87.31
75740;BME280;64357;51.344;6.550;2023-04-25T02:16:11;100594.72;;;6.48;87.53
75740;BME280;64357;51.344;6.550;2023-04-25T02:18:36;100600.75;;;6.41;87.96
75740;BME280;64357;51.344;6.550;2023-04-25T02:21:02;100610.16;;;6.42;88.36
75740;BME280;64357;51.344;6.550;2023-04-25T02:23:28;100609.09;;;6.40;88.64
75740;BME280;64357;51.344;6.550;2023-04-25T02:25:53;100608.13;;;6.47;88.47
75740;BME280;64357;51.344;6.550;2023-04-25T02:28:20;100602.16;;;6.46;88.15
75740;BME280;64357;51.344;6.550;2023-04-25T02:30:45;100603.44;;;6.43;88.34
75740;BME280;64357;51.344;6.550;2023-04-25T02:33:11;100594.09;;;6.34;89.12
75740;BME280;64357;51.344;6.550;2023-04-25T02:35:39;100608.78;;;6.30;89.54
75740;BME280;64357;51.344;6.550;2023-04-25T02:38:04;100611.88;;;6.27;89.14
75740;BME280;64357;51.344;6.550;2023-04-25T02:40:29;100609.22;;;6.19;90.46
75740;BME280;64357;51.344;6.550;2023-04-25T02:43:00;100614.66;;;6.22;89.79
75740;BME280;64357;51.344;6.550;2023-04-25T02:45:25;100603.25;;;6.18;90.74
75740;BME280;64357;51.344;6.550;2023-04-25T02:47:51;100613.44;;;6.11;90.72
75740;BME280;64357;51.344;6.550;2023-04-25T02:50:16;100603.88;;;6.01;90.94
75740;BME280;64357;51.344;6.550;2023-04-25T02:52:43;100610.00;;;6.03;91.93
75740;BME280;64357;51.344;6.550;2023-04-25T02:55:09;100620.16;;;6.03;91.99
75740;BME280;64357;51.344;6.550;2023-04-25T02:57:39;100612.16;;;6.07;91.56
75740;BME280;64357;51.344;6.550;2023-04-25T03:00:08;100601.19;;;6.00;91.95
75740;BME280;64357;51.344;6.550;2023-04-25T03:02:36;100606.56;;;6.03;91.76
75740;BME280;64357;51.344;6.550;2023-04-25T03:05:02;100611.09;;;6.05;91.39
75740;BME280;64357;51.344;6.550;2023-04-25T03:07:28;100619.13;;;6.54;91.69
75740;BME280;64357;51.344;6.550;2023-04-25T03:09:56;100615.41;;;6.44;90.47
75740;BME280;64357;51.344;6.550;2023-04-25T03:12:21;100617.66;;;6.33;90.75
75740;BME280;64357;51.344;6.550;2023-04-25T03:14:49;100610.31;;;6.13;91.46
75740;BME280;64357;51.344;6.550;2023-04-25T03:17:19;100614.66;;;6.14;91.50
75740;BME280;64357;51.344;6.550;2023-04-25T03:19:44;100621.72;;;6.17;92.33
75740;BME280;64357;51.344;6.550;2023-04-25T03:22:10;100619.94;;;6.09;92.19
75740;BME280;64357;51.344;6.550;2023-04-25T03:24:35;100612.53;;;6.03;92.72
75740;BME280;64357;51.344;6.550;2023-04-25T03:27:02;100621.47;;;6.00;92.64
75740;BME280;64357;51.344;6.550;2023-04-25T03:29:27;100616.91;;;6.04;93.02
75740;BME280;64357;51.344;6.550;2023-04-25T03:31:55;100617.31;;;5.93;93.02
75740;BME280;64357;51.344;6.550;2023-04-25T03:34:21;100613.31;;;5.95;93.23
75740;BME280;64357;51.344;6.550;2023-04-25T03:36:49;100619.88;;;5.93;92.30
75740;BME280;64357;51.344;6.550;2023-04-25T03:39:14;100627.28;;;5.92;93.06
75740;BME280;64357;51.344;6.550;2023-04-25T03:41:40;100631.63;;;5.93;92.63
75740;BME280;64357;51.344;6.550;2023-04-25T03:44:06;100616.75;;;5.88;92.57
75740;BME280;64357;51.344;6.550;2023-04-25T03:46:31;100619.66;;;5.92;92.62
75740;BME280;64357;51.344;6.550;2023-04-25T03:48:59;100622.38;;;5.86;92.77
75740;BME280;64357;51.344;6.550;2023-04-25T03:51:28;100618.56;;;5.89;93.37
75740;BME280;64357;51.344;6.550;2023-04-25T03:53:54;100622.41;;;5.93;93.07
75740;BME280;64357;51.344;6.550;2023-04-25T03:56:19;100621.31;;;5.91;91.95
75740;BME280;64357;51.344;6.550;2023-04-25T03:58:45;100631.81;;;5.87;93.26
75740;BME280;64357;51.344;6.550;2023-04-25T04:01:14;100629.19;;;6.08;92.06
75740;BME280;64357;51.344;6.550;2023-04-25T04:03:39;100638.81;;;6.04;91.51
75740;BME280;64357;51.344;6.550;2023-04-25T04:06:06;100633.41;;;6.01;91.75
75740;BME280;64357;51.344;6.550;2023-04-25T04:08:32;100637.78;;;5.87;92.09
75740;BME280;64357;51.344;6.550;2023-04-25T04:10:58;100635.44;;;5.82;92.34
75740;BME280;64357;51.344;6.550;2023-04-25T04:13:27;100634.72;;;5.83;92.07
75740;BME280;64357;51.344;6.550;2023-04-25T04:15:59;100645.06;;;5.77;92.02
75740;BME280;64357;51.344;6.550;2023-04-25T04:18:24;100639.63;;;5.81;92.51
75740;BME280;64357;51.344;6.550;2023-04-25T04:20:52;100642.34;;;5.76;92.37
75740;BME280;64357;51.344;6.550;2023-04-25T04:23:17;100645.63;;;5.75;92.84
75740;BME280;64357;51.344;6.550;2023-04-25T04:25:45;100643.94;;;5.82;91.68
75740;BME280;64357;51.344;6.550;2023-04-25T04:28:13;100645.63;;;5.75;92.58
75740;BME280;64357;51.344;6.550;2023-04-25T04:30:39;100652.13;;;5.73;92.30
75740;BME280;64357;51.344;6.550;2023-04-25T04:33:04;100659.19;;;5.75;92.04
75740;BME280;64357;51.344;6.550;2023-04-25T04:35:33;100651.06;;;5.71;92.21
75740;BME280;64357;51.344;6.550;2023-04-25T04:37:58;100659.03;;;5.67;92.12
75740;BME280;64357;51.344;6.550;2023-04-25T04:40:26;100655.03;;;5.61;93.14
75740;BME280;64357;51.344;6.550;2023-04-25T04:42:51;100656.69;;;5.61;92.88
75740;BME280;64357;51.344;6.550;2023-04-25T04:45:18;100656.66;;;5.68;92.21
75740;BME280;64357;51.344;6.550;2023-04-25T04:47:43;100661.38;;;5.65;91.83
75740;BME280;64357;51.344;6.550;2023-04-25T04:50:10;100667.72;;;5.61;92.13
75740;BME280;64357;51.344;6.550;2023-04-25T04:52:38;100673.84;;;5.71;92.24
75740;BME280;64357;51.344;6.550;2023-04-25T04:55:06;100674.97;;;5.66;91.66
75740;BME280;64357;51.344;6.550;2023-04-25T04:57:32;100675.88;;;5.59;92.42
75740;BME280;64357;51.344;6.550;2023-04-25T04:59:58;100678.78;;;5.55;93.11
75740;BME280;64357;51.344;6.550;2023-04-25T05:02:24;100675.72;;;5.57;91.89
75740;BME280;64357;51.344;6.550;2023-04-25T05:04:52;100691.78;;;5.65;92.02
75740;BME280;64357;51.344;6.550;2023-04-25T05:07:18;100690.53;;;5.54;92.64
75740;BME280;64357;51.344;6.550;2023-04-25T05:09:46;100693.97;;;5.55;92.58
75740;BME280;64357;51.344;6.550;2023-04-25T05:12:14;100691.63;;;5.56;92.09
75740;BME280;64357;51.344;6.550;2023-04-25T05:14:40;100698.69;;;5.59;91.34
75740;BME280;64357;51.344;6.550;2023-04-25T05:17:05;100702.28;;;5.61;91.69
75740;BME280;64357;51.344;6.550;2023-04-25T05:19:33;100701.94;;;5.65;91.60
75740;BME280;64357;51.344;6.550;2023-04-25T05:22:01;100705.69;;;5.69;90.45
75740;BME280;64357;51.344;6.550;2023-04-25T05:24:27;100701.53;;;5.76;89.88
75740;BME280;64357;51.344;6.550;2023-04-25T05:26:55;100691.75;;;5.79;89.57
75740;BME280;64357;51.344;6.550;2023-04-25T05:29:23;100703.84;;;5.89;89.01
75740;BME280;64357;51.344;6.550;2023-04-25T05:31:48;100709.09;;;5.98;87.77
75740;BME280;64357;51.344;6.550;2023-04-25T05:34:14;100714.97;;;6.27;87.57
75740;BME280;64357;51.344;6.550;2023-04-25T05:36:41;100713.78;;;6.16;87.45
75740;BME280;64357;51.344;6.550;2023-04-25T05:39:07;100723.66;;;6.29;86.87
75740;BME280;64357;51.344;6.550;2023-04-25T05:41:33;100718.84;;;6.16;86.41
75740;BME280;64357;51.344;6.550;2023-04-25T05:43:59;100717.53;;;6.20;86.49
75740;BME280;64357;51.344;6.550;2023-04-25T05:46:24;100718.88;;;6.39;86.23
75740;BME280;64357;51.344;6.550;2023-04-25T05:48:50;100721.84;;;6.35;86.25
75740;BME280;64357;51.344;6.550;2023-04-25T05:51:17;100731.00;;;6.49;85.29
75740;BME280;64357;51.344;6.550;2023-04-25T05:53:45;100736.88;;;6.71;84.62
75740;BME280;64357;51.344;6.550;2023-04-25T05:56:13;100729.78;;;6.68;84.16
75740;BME280;64357;51.344;6.550;2023-04-25T05:58:39;100743.91;;;6.80;83.30
75740;BME280;64357;51.344;6.550;2023-04-25T06:01:04;100730.09;;;6.78;81.96
75740;BME280;64357;51.344;6.550;2023-04-25T06:03:31;100740.22;;;6.85;82.92
75740;BME280;64357;51.344;6.550;2023-04-25T06:05:57;100746.44;;;6.80;81.98
75740;BME280;64357;51.344;6.550;2023-04-25T06:08:22;100746.66;;;6.75;81.48
75740;BME280;64357;51.344;6.550;2023-04-25T06:10:47;100755.44;;;6.85;81.52
75740;BME280;64357;51.344;6.550;2023-04-25T06:13:13;100754.75;;;6.79;81.58
75740;BME280;64357;51.344;6.550;2023-04-25T06:15:39;100756.88;;;6.90;82.18
75740;BME280;64357;51.344;6.550;2023-04-25T06:18:04;100752.66;;;6.98;81.54
75740;BME280;64357;51.344;6.550;2023-04-25T06:20:29;100769.06;;;7.09;80.45
75740;BME280;64357;51.344;6.550;2023-04-25T06:22:55;100766.81;;;6.96;80.95
75740;BME280;64357;51.344;6.550;2023-04-25T06:25:21;100765.09;;;6.81;81.36
75740;BME280;64357;51.344;6.550;2023-04-25T06:27:46;100765.78;;;6.87;81.93
75740;BME280;64357;51.344;6.550;2023-04-25T06:30:11;100766.16;;;6.83;81.63
75740;BME280;64357;51.344;6.550;2023-04-25T06:32:38;100758.66;;;6.68;81.33
75740;BME280;64357;51.344;6.550;2023-04-25T06:35:06;100752.78;;;6.77;81.17
75740;BME280;64357;51.344;6.550;2023-04-25T06:37:31;100761.63;;;6.87;80.92
75740;BME280;64357;51.344;6.550;2023-04-25T06:39:57;100766.81;;;6.96;79.65
75740;BME280;64357;51.344;6.550;2023-04-25T06:42:22;100775.47;;;7.05;79.10
75740;BME280;64357;51.344;6.550;2023-04-25T06:44:47;100774.84;;;7.15;77.26
75740;BME280;64357;51.344;6.550;2023-04-25T06:47:14;100777.78;;;7.11;76.76
75740;BME280;64357;51.344;6.550;2023-04-25T06:49:39;100773.31;;;7.01;76.46
75740;BME280;64357;51.344;6.550;2023-04-25T06:52:05;100782.88;;;7.11;77.01
75740;BME280;64357;51.344;6.550;2023-04-25T06:54:30;100781.91;;;7.17;77.87
75740;BME280;64357;51.344;6.550;2023-04-25T06:56:55;100782.88;;;7.11;76.04
75740;BME280;64357;51.344;6.550;2023-04-25T06:59:21;100788.19;;;7.28;76.30
75740;BME280;64357;51.344;6.550;2023-04-25T07:01:46;100794.91;;;7.28;75.20
75740;BME280;64357;51.344;6.550;2023-04-25T07:04:12;100795.84;;;7.44;74.38
75740;BME280;64357;51.344;6.550;2023-04-25T07:06:42;100796.72;;;7.52;73.02
75740;BME280;64357;51.344;6.550;2023-04-25T07:09:10;100786.25;;;7.64;74.07
75740;BME280;64357;51.344;6.550;2023-04-25T07:11:35;100792.09;;;7.63;74.22
75740;BME280;64357;51.344;6.550;2023-04-25T07:14:04;100800.19;;;7.68;74.41
75740;BME280;64357;51.344;6.550;2023-04-25T07:16:31;100788.41;;;7.84;74.58
75740;BME280;64357;51.344;6.550;2023-04-25T07:18:57;100802.94;;;7.85;73.74
75740;BME280;64357;51.344;6.550;2023-04-25T07:21:22;100804.81;;;7.79;73.86
75740;BME280;64357;51.344;6.550;2023-04-25T07:23:52;100809.06;;;7.71;75.28
75740;BME280;64357;51.344;6.550;2023-04-25T07:26:18;100801.34;;;7.63;73.90
75740;BME280;64357;51.344;6.550;2023-04-25T07:28:43;100805.56;;;7.78;73.84
75740;BME280;64357;51.344;6.550;2023-04-25T07:31:14;100818.44;;;7.80;70.77
75740;BME280;64357;51.344;6.550;2023-04-25T07:33:41;100811.41;;;7.54;70.86
75740;BME280;64357;51.344;6.550;2023-04-25T07:36:07;100809.81;;;7.70;71.55
75740;BME280;64357;51.344;6.550;2023-04-25T07:38:32;100806.56;;;7.87;71.66
75740;BME280;64357;51.344;6.550;2023-04-25T07:40:58;100802.59;;;8.05;71.50
75740;BME280;64357;51.344;6.550;2023-04-25T07:43:23;100813.66;;;8.06;70.33
75740;BME280;64357;51.344;6.550;2023-04-25T07:45:52;100810.41;;;8.38;69.80
75740;BME280;64357;51.344;6.550;2023-04-25T07:48:19;100827.53;;;8.39;67.60
75740;BME280;64357;51.344;6.550;2023-04-25T07:50:45;100831.91;;;8.33;68.09
75740;BME280;64357;51.344;6.550;2023-04-25T07:53:11;100825.16;;;8.18;67.39
75740;BME280;64357;51.344;6.550;2023-04-25T07:55:36;100838.94;;;8.04;68.65
75740;BME280;64357;51.344;6.550;2023-04-25T07:58:08;100844.13;;;8.28;67.59
75740;BME280;64357;51.344;6.550;2023-04-25T08:00:34;100839.19;;;8.14;67.75
75740;BME280;64357;51.344;6.550;2023-04-25T08:02:59;100847.47;;;8.05;68.53
75740;BME280;64357;51.344;6.550;2023-04-25T08:05:27;100849.34;;;7.98;68.22
75740;BME280;64357;51.344;6.550;2023-04-25T08:07:52;100850.56;;;8.02;67.39
75740;BME280;64357;51.344;6.550;2023-04-25T08:10:17;100853.88;;;7.78;68.65
75740;BME280;64357;51.344;6.550;2023-04-25T08:12:45;100867.78;;;7.89;69.48
75740;BME280;64357;51.344;6.550;2023-04-25T08:15:11;100865.94;;;8.26;68.27
75740;BME280;64357;51.344;6.550;2023-04-25T08:17:36;100853.75;;;8.78;65.57
75740;BME280;64357;51.344;6.550;2023-04-25T08:20:02;100859.75;;;10.01;62.49
75740;BME280;64357;51.344;6.550;2023-04-25T08:22:33;100854.69;;;10.60;59.40
75740;BME280;64357;51.344;6.550;2023-04-25T08:24:59;100869.34;;;10.37;59.88
75740;BME280;64357;51.344;6.550;2023-04-25T08:27:24;100859.75;;;10.43;57.99
75740;BME280;64357;51.344;6.550;2023-04-25T08:29:49;100868.50;;;11.40;57.29
75740;BME280;64357;51.344;6.550;2023-04-25T08:32:18;100862.94;;;10.58;57.41
75740;BME280;64357;51.344;6.550;2023-04-25T08:34:46;100870.94;;;10.70;57.25
75740;BME280;64357;51.344;6.550;2023-04-25T08:37:14;100879.00;;;9.49;58.96
75740;BME280;64357;51.344;6.550;2023-04-25T08:39:44;100876.16;;;9.21;59.75
75740;BME280;64357;51.344;6.550;2023-04-25T08:42:11;100868.88;;;9.57;58.23
75740;BME280;64357;51.344;6.550;2023-04-25T08:44:37;100891.91;;;10.08;57.55
75740;BME280;64357;51.344;6.550;2023-04-25T08:47:06;100889.59;;;11.12;53.79
75740;BME280;64357;51.344;6.550;2023-04-25T08:49:32;100895.31;;;11.97;51.30
75740;BME280;64357;51.344;6.550;2023-04-25T08:52:04;100898.84;;;11.55;51.01
75740;BME280;64357;51.344;6.550;2023-04-25T08:54:32;100887.47;;;11.25;52.25
75740;BME280;64357;51.344;6.550;2023-04-25T08:57:01;100898.31;;;10.97;54.65
75740;BME280;64357;51.344;6.550;2023-04-25T08:59:30;100905.50;;;10.83;55.75
75740;BME280;64357;51.344;6.550;2023-04-25T09:01:57;100898.63;;;10.23;57.89
75740;BME280;64357;51.344;6.550;2023-04-25T09:04:23;100907.56;;;9.53;58.93
75740;BME280;64357;51.344;6.550;2023-04-25T09:06:48;100914.59;;;9.31;59.26
75740;BME280;64357;51.344;6.550;2023-04-25T09:09:16;100921.00;;;11.19;53.37
75740;BME280;64357;51.344;6.550;2023-04-25T09:11:43;100924.50;;;12.36;46.94
75740;BME280;64357;51.344;6.550;2023-04-25T09:17:13;100926.81;;;11.79;46.34
75740;BME280;64357;51.344;6.550;2023-04-25T09:19:39;100938.06;;;10.60;50.63
75740;BME280;64357;51.344;6.550;2023-04-25T09:22:05;100940.84;;;10.04;52.69
75740;BME280;64357;51.344;6.550;2023-04-25T09:24:36;100935.69;;;9.95;52.63
75740;BME280;64357;51.344;6.550;2023-04-25T09:27:06;100933.91;;;9.94;52.61
75740;BME280;64357;51.344;6.550;2023-04-25T09:29:33;100937.63;;;10.22;53.11
75740;BME280;64357;51.344;6.550;2023-04-25T09:32:18;100939.28;;;10.22;53.16
75740;BME280;64357;51.344;6.550;2023-04-25T09:34:52;100945.63;;;10.01;54.16
75740;BME280;64357;51.344;6.550;2023-04-25T09:37:23;100953.50;;;10.11;52.61
75740;BME280;64357;51.344;6.550;2023-04-25T09:39:53;100955.69;;;10.24;50.39
75740;BME280;64357;51.344;6.550;2023-04-25T09:42:22;100959.19;;;9.84;52.62
75740;BME280;64357;51.344;6.550;2023-04-25T09:44:51;100968.13;;;9.96;53.01
75740;BME280;64357;51.344;6.550;2023-04-25T09:47:17;100968.44;;;9.99;53.57
75740;BME280;64357;51.344;6.550;2023-04-25T09:49:43;100966.06;;;9.76;54.44
75740;BME280;64357;51.344;6.550;2023-04-25T09:52:13;100963.88;;;9.88;54.80
75740;BME280;64357;51.344;6.550;2023-04-25T09:54:40;100971.16;;;9.76;54.89
75740;BME280;64357;51.344;6.550;2023-04-25T09:57:19;100970.69;;;9.72;54.82
75740;BME280;64357;51.344;6.550;2023-04-25T09:59:48;100983.25;;;9.86;55.18
75740;BME280;64357;51.344;6.550;2023-04-25T10:02:16;100981.88;;;9.65;55.04
75740;BME280;64357;51.344;6.550;2023-04-25T10:04:47;100986.84;;;9.88;55.42
75740;BME280;64357;51.344;6.550;2023-04-25T10:07:16;100982.06;;;9.91;54.69
75740;BME280;64357;51.344;6.550;2023-04-25T10:09:47;100991.03;;;10.12;54.23
75740;BME280;64357;51.344;6.550;2023-04-25T10:12:16;100992.56;;;10.19;53.19
75740;BME280;64357;51.344;6.550;2023-04-25T10:14:42;100993.19;;;10.49;52.81
75740;BME280;64357;51.344;6.550;2023-04-25T10:17:10;100994.94;;;10.83;51.90
75740;BME280;64357;51.344;6.550;2023-04-25T10:19:41;100998.50;;;11.62;49.67
75740;BME280;64357;51.344;6.550;2023-04-25T10:22:35;100997.72;;;11.37;51.25
75740;BME280;64357;51.344;6.550;2023-04-25T10:25:02;100997.44;;;11.51;49.42
75740;BME280;64357;51.344;6.550;2023-04-25T10:27:31;101004.81;;;11.22;48.44
75740;BME280;64357;51.344;6.550;2023-04-25T10:30:11;101000.81;;;10.40;48.23
75740;BME280;64357;51.344;6.550;2023-04-25T10:32:41;101001.19;;;10.61;48.92
75740;BME280;64357;51.344;6.550;2023-04-25T10:35:18;100995.84;;;10.84;48.96
75740;BME280;64357;51.344;6.550;2023-04-25T10:38:08;100998.78;;;11.21;48.15
75740;BME280;64357;51.344;6.550;2023-04-25T10:40:34;100999.84;;;11.41;48.54
75740;BME280;64357;51.344;6.550;2023-04-25T10:48:55;100981.63;;;11.64;48.02
75740;BME280;64357;51.344;6.550;2023-04-25T10:51:29;100977.13;;;11.61;48.39
75740;BME280;64357;51.344;6.550;2023-04-25T10:59:10;100993.47;;;10.85;50.56
75740;BME280;64357;51.344;6.550;2023-04-25T11:01:43;101003.31;;;10.56;51.72
75740;BME280;64357;51.344;6.550;2023-04-25T11:04:31;101002.97;;;11.04;50.10
75740;BME280;64357;51.344;6.550;2023-04-25T11:09:29;100997.91;;;11.38;47.78
75740;BME280;64357;51.344;6.550;2023-04-25T11:11:56;101003.31;;;11.50;48.25
75740;BME280;64357;51.344;6.550;2023-04-25T11:14:24;100987.94;;;12.02;44.89
75740;BME280;64357;51.344;6.550;2023-04-25T11:16:54;100999.06;;;12.47;43.67
75740;BME280;64357;51.344;6.550;2023-04-25T11:19:20;100995.38;;;12.63;44.02
75740;BME280;64357;51.344;6.550;2023-04-25T11:21:46;100991.72;;;12.69;44.20
75740;BME280;64357;51.344;6.550;2023-04-25T11:24:11;100995.59;;;12.47;45.45
75740;BME280;64357;51.344;6.550;2023-04-25T11:26:37;100992.84;;;12.81;44.55
75740;BME280;64357;51.344;6.550;2023-04-25T11:29:02;100990.91;;;12.43;45.54
75740;BME280;64357;51.344;6.550;2023-04-25T11:31:29;100994.56;;;13.00;44.68
75740;BME280;64357;51.344;6.550;2023-04-25T11:33:57;100992.84;;;12.81;43.95
75740;BME280;64357;51.344;6.550;2023-04-25T11:36:26;100990.03;;;11.71;47.03
75740;BME280;64357;51.344;6.550;2023-04-25T11:38:53;100991.38;;;11.07;47.66
75740;BME280;64357;51.344;6.550;2023-04-25T11:41:25;100993.31;;;10.92;46.04
75740;BME280;64357;51.344;6.550;2023-04-25T11:43:51;100993.06;;;11.33;45.84
75740;BME280;64357;51.344;6.550;2023-04-25T11:46:17;101002.56;;;11.34;45.16
75740;BME280;64357;51.344;6.550;2023-04-25T11:48:45;101012.28;;;11.12;46.21
75740;BME280;64357;51.344;6.550;2023-04-25T11:51:11;101003.41;;;10.91;46.57
75740;BME280;64357;51.344;6.550;2023-04-25T11:53:41;101004.81;;;11.22;47.87
75740;BME280;64357;51.344;6.550;2023-04-25T11:56:09;101022.91;;;10.82;51.73
75740;BME280;64357;51.344;6.550;2023-04-25T11:58:58;101024.06;;;9.86;58.75
75740;BME280;64357;51.344;6.550;2023-04-25T12:03:54;101020.66;;;10.19;59.84
75740;BME280;64357;51.344;6.550;2023-04-25T12:06:19;101028.44;;;10.36;59.71
75740;BME280;64357;51.344;6.550;2023-04-25T12:09:03;101020.44;;;11.60;55.62
75740;BME280;64357;51.344;6.550;2023-04-25T12:11:32;101029.44;;;12.17;52.32
75740;BME280;64357;51.344;6.550;2023-04-25T12:14:04;101026.66;;;11.96;52.82
75740;BME280;64357;51.344;6.550;2023-04-25T12:16:45;101029.94;;;12.85;51.03
75740;BME280;64357;51.344;6.550;2023-04-25T12:19:15;101030.16;;;12.69;48.84
75740;BME280;64357;51.344;6.550;2023-04-25T12:21:44;101031.00;;;13.06;47.53
75740;BME280;64357;51.344;6.550;2023-04-25T12:24:22;101024.66;;;12.56;48.23
75740;BME280;64357;51.344;6.550;2023-04-25T12:27:04;101024.41;;;11.91;51.13
75740;BME280;64357;51.344;6.550;2023-04-25T12:29:32;101032.03;;;11.47;49.01
75740;BME280;64357;51.344;6.550;2023-04-25T12:31:58;101030.19;;;11.12;50.76
75740;BME280;64357;51.344;6.550;2023-04-25T12:34:24;101038.19;;;11.24;52.10
75740;BME280;64357;51.344;6.550;2023-04-25T12:36:51;101046.22;;;10.85;58.77
75740;BME280;64357;51.344;6.550;2023-04-25T12:39:20;101039.41;;;10.35;62.55
75740;BME280;64357;51.344;6.550;2023-04-25T12:41:47;101039.38;;;10.10;64.30
75740;BME280;64357;51.344;6.550;2023-04-25T12:44:13;101047.56;;;9.99;64.56
75740;BME280;64357;51.344;6.550;2023-04-25T12:46:40;101052.94;;;10.18;63.71
75740;BME280;64357;51.344;6.550;2023-04-25T12:49:06;101037.03;;;9.96;63.93
75740;BME280;64357;51.344;6.550;2023-04-25T12:51:33;101063.38;;;10.04;63.23
75740;BME280;64357;51.344;6.550;2023-04-25T12:54:03;101056.78;;;10.30;61.58
75740;BME280;64357;51.344;6.550;2023-04-25T12:56:29;101059.19;;;10.13;61.69
75740;BME280;64357;51.344;6.550;2023-04-25T12:58:55;101054.47;;;10.00;60.13
75740;BME280;64357;51.344;6.550;2023-04-25T13:01:25;101047.75;;;10.25;55.85
75740;BME280;64357;51.344;6.550;2023-04-25T13:03:55;101060.44;;;10.32;53.82
75740;BME280;64357;51.344;6.550;2023-04-25T13:06:23;101056.19;;;10.08;50.29
75740;BME280;64357;51.344;6.550;2023-04-25T13:08:51;101044.16;;;10.07;51.32
75740;BME280;64357;51.344;6.550;2023-04-25T13:11:19;101061.38;;;10.41;50.30
75740;BME280;64357;51.344;6.550;2023-04-25T13:13:44;101057.41;;;10.12;49.67
75740;BME280;64357;51.344;6.550;2023-04-25T13:16:10;101063.31;;;10.68;49.33
75740;BME280;64357;51.344;6.550;2023-04-25T13:18:38;101061.09;;;10.89;47.02